MSC Maya — 3FNF8 — position and weather

sailwx.info

Track history (hours):
 
Tides and Currents Weather Stations Pressure Air Temp Water Temp Dewpoint Dewpoint Depression Visibility Wind Speed Wind Dir Waves Ship Positions

MSC Maya

Last reported at 2015-Jul-23 13:05 UTC. Time now 2015-Aug-05 06:25 UTC.
Position N 26°26' W 078°43'.
Warning: this ship's position is 12 days out of date.

Length 242 m; draft 8.1 m.

Type: Cargo ship. MMSI: 351384000.

Date/timePositionNaut miles runAvg speedWind from/ knotsBaromVisibWave heightAir tempDewpointWater temp
2015-Jul-23 13:05N 26°26' W 078°43'6 0.5
2015-Jul-23 01:31N 26°32' W 078°46'0 0.4
2015-Jul-23 00:32N 26°31' W 078°46'8 6.9
2015-Jul-22 23:26N 26°29' W 078°54'32614.2
2015-Jul-22 00:31N 31°54' W 079°28'176 4.4
2015-Jul-20 08:33N 33°45' W 076°45'2114.3
2015-Jul-20 07:04N 33°58' W 076°26'814.3
2015-Jul-20 06:32N 34°04' W 076°19'1413.9
2015-Jul-20 05:31N 34°12' W 076°05'2713.8
2015-Jul-20 03:33N 34°34' W 075°47'2013.7
2015-Jul-20 02:07N 34°46' W 075°28'2911.3
2015-Jul-19 23:33N 35°07' W 075°03'1111.0
2015-Jul-19 22:34N 35°17' W 074°58'11013.8
2015-Jul-19 14:33N 36°56' W 075°59'18 0.8
2015-Jul-18 15:30N 36°49' W 075°38'0 0.5
2015-Jul-18 14:34N 36°49' W 075°37'72 7.2
2015-Jul-18 04:33N 37°55' W 076°11'6215.5
2015-Jul-18 00:34N 38°57' W 076°23'1414.4
2015-Jul-17 23:33N 39°11' W 076°26'7 7.0
2015-Jul-17 22:33N 39°15' W 076°33'0 0.0
2015-Jul-17 21:32N 39°15' W 076°33'0 0.0
2015-Jul-17 20:32N 39°15' W 076°33'0 0.0
2015-Jul-17 19:32N 39°15' W 076°33'0 0.0
2015-Jul-17 18:32N 39°15' W 076°33'0 0.0
2015-Jul-17 17:32N 39°15' W 076°33'0 0.0
2015-Jul-17 16:32N 39°15' W 076°33'0 0.0
2015-Jul-17 15:32N 39°15' W 076°33'0 0.0
2015-Jul-17 14:32N 39°15' W 076°33'0 0.0
2015-Jul-17 13:32N 39°15' W 076°33'5 4.7
2015-Jul-17 12:33N 39°12' W 076°30'1312.7
2015-Jul-17 11:33N 39°00' W 076°23'1616.2
2015-Jul-17 10:34N 38°44' W 076°26'1515.5
2015-Jul-17 09:34N 38°29' W 076°23'1616.4
2015-Jul-17 08:33N 38°14' W 076°15'1616.3
2015-Jul-17 07:33N 37°58' W 076°11'1615.8
2015-Jul-17 06:34N 37°42' W 076°11'1514.9
2015-Jul-17 05:33N 37°28' W 076°04'66 7.9
2015-Jul-16 21:13N 37°39' W 074°43'1015.8
2015-Jul-16 20:33N 37°48' W 074°35'1615.6
2015-Jul-16 19:32N 38°01' W 074°25'1616.2
2015-Jul-16 18:33N 38°17' W 074°19'5116.8
2015-Jul-16 15:33N 39°05' W 073°59'1716.7
2015-Jul-16 14:31N 39°22' W 073°56'1616.7
2015-Jul-16 13:33N 39°38' W 073°53'1716.5
2015-Jul-16 12:33N 39°54' W 073°51'1716.4
2015-Jul-16 11:32N 40°11' W 073°51'1212.6
2015-Jul-16 10:33N 40°23' W 073°48'6 5.6
2015-Jul-16 09:33N 40°28' W 073°52'1211.5
2015-Jul-16 08:33N 40°36' W 074°03'6 5.7
2015-Jul-16 07:33N 40°39' W 074°09'2 1.8
2015-Jul-16 06:31N 40°41' W 074°09'0 0.0
2015-Jul-16 05:31N 40°41' W 074°09'0 0.0
2015-Jul-16 04:33N 40°41' W 074°09'0 0.0
2015-Jul-16 03:32N 40°41' W 074°09'0 0.0
2015-Jul-16 02:32N 40°41' W 074°09'0 0.0
2015-Jul-16 01:32N 40°41' W 074°09'0 0.0
2015-Jul-16 00:33N 40°41' W 074°09'0 0.0
2015-Jul-15 23:32N 40°41' W 074°09'0 0.0
2015-Jul-15 22:34N 40°41' W 074°09'0 0.0
2015-Jul-15 21:33N 40°41' W 074°09'0 0.0
2015-Jul-15 20:32N 40°41' W 074°09'0 0.0
2015-Jul-15 19:33N 40°41' W 074°09'0 0.0
2015-Jul-15 18:33N 40°41' W 074°09'0 0.0
2015-Jul-15 17:33N 40°41' W 074°09'0 0.0
2015-Jul-15 16:33N 40°41' W 074°09'0 0.0
2015-Jul-15 15:31N 40°41' W 074°09'0 0.0
2015-Jul-15 14:31N 40°41' W 074°09'0 0.0
2015-Jul-15 13:31N 40°41' W 074°09'1 1.4
2015-Jul-15 12:33N 40°39' W 074°09'3 2.8
2015-Jul-15 11:33N 40°39' W 074°05'7 6.8
2015-Jul-15 10:34N 40°33' W 074°01'1010.4
2015-Jul-15 09:33N 40°27' W 073°50'7 5.7
2015-Jul-15 08:25N 40°24' W 073°43'7 7.8
2015-Jul-15 07:34N 40°20' W 073°36'1111.0
2015-Jul-15 06:33N 40°13' W 073°24'1110.5
2015-Jul-15 05:33N 40°09' W 073°11'8 7.9
2015-Jul-15 04:33N 40°12' W 073°02'1 0.7
2015-Jul-15 03:33N 40°12' W 073°03'1 0.8
2015-Jul-15 02:33N 40°11' W 073°04'1 0.8
2015-Jul-15 01:32N 40°11' W 073°04'1 0.8
2015-Jul-15 00:33N 40°10' W 073°05'1 1.2
2015-Jul-14 23:33N 40°10' W 073°07'1 0.7
2015-Jul-14 22:33N 40°09' W 073°07'15 6.8
2015-Jul-14 20:21N 39°57' W 072°56'1011.9
2015-Jul-14 19:32N 39°49' W 072°48'1312.2
2015-Jul-14 18:29N 39°40' W 072°37'1112.0
2015-Jul-14 17:33N 39°31' W 072°27'1111.5
2015-Jul-14 16:33N 39°22' W 072°18'1111.2
2015-Jul-14 15:33N 39°14' W 072°09'1111.0
2015-Jul-14 14:33N 39°05' W 072°00'3 3.1
2015-Jul-14 13:33N 39°03' W 071°57'4 3.8
2015-Jul-14 12:30N 39°01' W 071°53'1313.8
2015-Jul-14 11:33N 38°51' W 071°42'1514.9
2015-Jul-14 10:33N 38°40' W 071°30'  
Track history (hours):
 
Tides and Currents Weather Stations Pressure Air Temp Water Temp Dewpoint Dewpoint Depression Visibility Wind Speed Wind Dir Waves Ship Positions

MSC Maya

Last reported at 2015-Jul-23 13:05 UTC. Time now 2015-Aug-05 06:25 UTC.
Position N 26°26' W 078°43'.
Warning: this ship's position is 12 days out of date.

Length 242 m; draft 8.1 m.

Type: Cargo ship. MMSI: 351384000.

Date/timePositionNaut miles runAvg speedWind from/ knotsBaromVisibWave heightAir tempDewpointWater temp
2015-Jul-23 13:05N 26°26' W 078°43'6 0.5
2015-Jul-23 01:31N 26°32' W 078°46'0 0.4
2015-Jul-23 00:32N 26°31' W 078°46'8 6.9
2015-Jul-22 23:26N 26°29' W 078°54'32614.2
2015-Jul-22 00:31N 31°54' W 079°28'176 4.4
2015-Jul-20 08:33N 33°45' W 076°45'2114.3
2015-Jul-20 07:04N 33°58' W 076°26'814.3
2015-Jul-20 06:32N 34°04' W 076°19'1413.9
2015-Jul-20 05:31N 34°12' W 076°05'2713.8
2015-Jul-20 03:33N 34°34' W 075°47'2013.7
2015-Jul-20 02:07N 34°46' W 075°28'2911.3
2015-Jul-19 23:33N 35°07' W 075°03'1111.0
2015-Jul-19 22:34N 35°17' W 074°58'11013.8
2015-Jul-19 14:33N 36°56' W 075°59'18 0.8
2015-Jul-18 15:30N 36°49' W 075°38'0 0.5
2015-Jul-18 14:34N 36°49' W 075°37'72 7.2
2015-Jul-18 04:33N 37°55' W 076°11'6215.5
2015-Jul-18 00:34N 38°57' W 076°23'1414.4
2015-Jul-17 23:33N 39°11' W 076°26'7 7.0
2015-Jul-17 22:33N 39°15' W 076°33'0 0.0
2015-Jul-17 21:32N 39°15' W 076°33'0 0.0
2015-Jul-17 20:32N 39°15' W 076°33'0 0.0
2015-Jul-17 19:32N 39°15' W 076°33'0 0.0
2015-Jul-17 18:32N 39°15' W 076°33'0 0.0
2015-Jul-17 17:32N 39°15' W 076°33'0 0.0
2015-Jul-17 16:32N 39°15' W 076°33'0 0.0
2015-Jul-17 15:32N 39°15' W 076°33'0 0.0
2015-Jul-17 14:32N 39°15' W 076°33'0 0.0
2015-Jul-17 13:32N 39°15' W 076°33'5 4.7
2015-Jul-17 12:33N 39°12' W 076°30'1312.7
2015-Jul-17 11:33N 39°00' W 076°23'1616.2
2015-Jul-17 10:34N 38°44' W 076°26'1515.5
2015-Jul-17 09:34N 38°29' W 076°23'1616.4
2015-Jul-17 08:33N 38°14' W 076°15'1616.3
2015-Jul-17 07:33N 37°58' W 076°11'1615.8
2015-Jul-17 06:34N 37°42' W 076°11'1514.9
2015-Jul-17 05:33N 37°28' W 076°04'66 7.9
2015-Jul-16 21:13N 37°39' W 074°43'1015.8
2015-Jul-16 20:33N 37°48' W 074°35'1615.6
2015-Jul-16 19:32N 38°01' W 074°25'1616.2
2015-Jul-16 18:33N 38°17' W 074°19'5116.8
2015-Jul-16 15:33N 39°05' W 073°59'1716.7
2015-Jul-16 14:31N 39°22' W 073°56'1616.7
2015-Jul-16 13:33N 39°38' W 073°53'1716.5
2015-Jul-16 12:33N 39°54' W 073°51'1716.4
2015-Jul-16 11:32N 40°11' W 073°51'1212.6
2015-Jul-16 10:33N 40°23' W 073°48'6 5.6
2015-Jul-16 09:33N 40°28' W 073°52'1211.5
2015-Jul-16 08:33N 40°36' W 074°03'6 5.7
2015-Jul-16 07:33N 40°39' W 074°09'2 1.8
2015-Jul-16 06:31N 40°41' W 074°09'0 0.0
2015-Jul-16 05:31N 40°41' W 074°09'0 0.0
2015-Jul-16 04:33N 40°41' W 074°09'0 0.0
2015-Jul-16 03:32N 40°41' W 074°09'0 0.0
2015-Jul-16 02:32N 40°41' W 074°09'0 0.0
2015-Jul-16 01:32N 40°41' W 074°09'0 0.0
2015-Jul-16 00:33N 40°41' W 074°09'0 0.0
2015-Jul-15 23:32N 40°41' W 074°09'0 0.0
2015-Jul-15 22:34N 40°41' W 074°09'0 0.0
2015-Jul-15 21:33N 40°41' W 074°09'0 0.0
2015-Jul-15 20:32N 40°41' W 074°09'0 0.0
2015-Jul-15 19:33N 40°41' W 074°09'0 0.0
2015-Jul-15 18:33N 40°41' W 074°09'0 0.0
2015-Jul-15 17:33N 40°41' W 074°09'0 0.0
2015-Jul-15 16:33N 40°41' W 074°09'0 0.0
2015-Jul-15 15:31N 40°41' W 074°09'0 0.0
2015-Jul-15 14:31N 40°41' W 074°09'0 0.0
2015-Jul-15 13:31N 40°41' W 074°09'1 1.4
2015-Jul-15 12:33N 40°39' W 074°09'3 2.8
2015-Jul-15 11:33N 40°39' W 074°05'7 6.8
2015-Jul-15 10:34N 40°33' W 074°01'1010.4
2015-Jul-15 09:33N 40°27' W 073°50'7 5.7
2015-Jul-15 08:25N 40°24' W 073°43'7 7.8
2015-Jul-15 07:34N 40°20' W 073°36'1111.0
2015-Jul-15 06:33N 40°13' W 073°24'1110.5
2015-Jul-15 05:33N 40°09' W 073°11'8 7.9
2015-Jul-15 04:33N 40°12' W 073°02'1 0.7
2015-Jul-15 03:33N 40°12' W 073°03'1 0.8
2015-Jul-15 02:33N 40°11' W 073°04'1 0.8
2015-Jul-15 01:32N 40°11' W 073°04'1 0.8
2015-Jul-15 00:33N 40°10' W 073°05'1 1.2
2015-Jul-14 23:33N 40°10' W 073°07'1 0.7
2015-Jul-14 22:33N 40°09' W 073°07'15 6.8
2015-Jul-14 20:21N 39°57' W 072°56'1011.9
2015-Jul-14 19:32N 39°49' W 072°48'1312.2
2015-Jul-14 18:29N 39°40' W 072°37'1112.0
2015-Jul-14 17:33N 39°31' W 072°27'1111.5
2015-Jul-14 16:33N 39°22' W 072°18'1111.2
2015-Jul-14 15:33N 39°14' W 072°09'1111.0
2015-Jul-14 14:33N 39°05' W 072°00'3 3.1
2015-Jul-14 13:33N 39°03' W 071°57'4 3.8
2015-Jul-14 12:30N 39°01' W 071°53'1313.8
2015-Jul-14 11:33N 38°51' W 071°42'1514.9
2015-Jul-14 10:33N 38°40' W 071°30'  

Dump ship's entire track history